Terminal Aerodrome Forecast
Issued by NWS Sterling, VA

Current Version | Previous Version | Graphics & Text | Print | Product List | Glossary On
Versions: 1 2 3 4 5 6 7 8 9 10 11 12 13 14 15 16 17 18 19 20 21 22
751
FTUS41 KLWX 230228 AAB
TAFMRB
TAF AMD
KMRB 230228Z 2302/2324 03005KT 1 1/2SM BR OVC007
     FM230600 08004KT 3SM -RADZ BR OVC003
     FM231200 12004KT 1 1/2SM -RA BR OVC003
     FM231800 15006KT 1 1/2SM BR OVC003=

USA.gov is the U.S. government's official web portal to all federal, state and local government web resources and services.